sensor_id;sensor_type;location;lat;lon;timestamp;pressure;altitude;pressure_sealevel;temperature;humidity
10115;BME280;5097;43.260;27.812;2023-04-29T00:01:28;100273.81;;;7.93;57.59
10115;BME280;5097;43.260;27.812;2023-04-29T00:04:12;100253.47;;;7.98;57.60
10115;BME280;5097;43.260;27.812;2023-04-29T00:06:56;100229.94;;;7.71;57.74
10115;BME280;5097;43.260;27.812;2023-04-29T00:09:40;100203.22;;;7.60;57.56
10115;BME280;5097;43.260;27.812;2023-04-29T00:12:25;100234.66;;;7.85;57.84
10115;BME280;5097;43.260;27.812;2023-04-29T00:15:10;100225.25;;;7.80;58.13
10115;BME280;5097;43.260;27.812;2023-04-29T00:17:55;100222.97;;;7.48;58.02
10115;BME280;5097;43.260;27.812;2023-04-29T00:20:39;100264.72;;;7.80;58.24
10115;BME280;5097;43.260;27.812;2023-04-29T00:23:25;100181.41;;;7.36;58.10
10115;BME280;5097;43.260;27.812;2023-04-29T00:26:09;100224.69;;;7.49;58.82
10115;BME280;5097;43.260;27.812;2023-04-29T00:28:54;100262.19;;;7.77;58.26
10115;BME280;5097;43.260;27.812;2023-04-29T00:31:38;100210.59;;;7.28;58.63
10115;BME280;5097;43.260;27.812;2023-04-29T00:34:24;100256.50;;;7.65;58.57
10115;BME280;5097;43.260;27.812;2023-04-29T00:37:08;100269.50;;;7.46;58.86
10115;BME280;5097;43.260;27.812;2023-04-29T00:39:52;100254.78;;;7.41;59.03
10115;BME280;5097;43.260;27.812;2023-04-29T00:42:36;100227.78;;;6.90;59.68
10115;BME280;5097;43.260;27.812;2023-04-29T00:45:20;100220.81;;;7.12;59.46
10115;BME280;5097;43.260;27.812;2023-04-29T00:48:04;100210.84;;;6.98;59.41
10115;BME280;5097;43.260;27.812;2023-04-29T00:50:51;100233.16;;;6.86;60.16
10115;BME280;5097;43.260;27.812;2023-04-29T00:53:35;100221.88;;;6.83;59.79
10115;BME280;5097;43.260;27.812;2023-04-29T00:56:20;100270.28;;;7.25;59.69
10115;BME280;5097;43.260;27.812;2023-04-29T00:59:04;100218.56;;;6.78;60.00
10115;BME280;5097;43.260;27.812;2023-04-29T01:01:50;100264.38;;;6.94;60.48
10115;BME280;5097;43.260;27.812;2023-04-29T01:04:35;100223.94;;;6.75;60.59
10115;BME280;5097;43.260;27.812;2023-04-29T01:07:27;100225.13;;;6.66;60.56
10115;BME280;5097;43.260;27.812;2023-04-29T01:10:20;100223.94;;;6.49;61.04
10115;BME280;5097;43.260;27.812;2023-04-29T01:13:08;100253.06;;;6.67;61.31
10115;BME280;5097;43.260;27.812;2023-04-29T01:16:00;100258.88;;;6.77;60.14
10115;BME280;5097;43.260;27.812;2023-04-29T01:18:49;100224.50;;;6.59;60.73
10115;BME280;5097;43.260;27.812;2023-04-29T01:21:44;100253.72;;;6.74;60.67
10115;BME280;5097;43.260;27.812;2023-04-29T01:24:31;100218.59;;;6.52;61.16
10115;BME280;5097;43.260;27.812;2023-04-29T01:27:23;100265.47;;;6.63;61.07
10115;BME280;5097;43.260;27.812;2023-04-29T01:30:21;100243.97;;;6.52;61.07
10115;BME280;5097;43.260;27.812;2023-04-29T01:33:16;100217.50;;;6.33;61.23
10115;BME280;5097;43.260;27.812;2023-04-29T01:36:12;100259.84;;;6.49;61.46
10115;BME280;5097;43.260;27.812;2023-04-29T01:39:06;100267.00;;;6.44;61.88
10115;BME280;5097;43.260;27.812;2023-04-29T01:41:56;100262.84;;;6.63;60.80
10115;BME280;5097;43.260;27.812;2023-04-29T01:44:46;100225.59;;;6.27;61.47
10115;BME280;5097;43.260;27.812;2023-04-29T01:47:36;100237.50;;;6.37;61.44
10115;BME280;5097;43.260;27.812;2023-04-29T01:50:20;100271.53;;;6.38;61.73
10115;BME280;5097;43.260;27.812;2023-04-29T01:53:04;100221.94;;;6.06;62.07
10115;BME280;5097;43.260;27.812;2023-04-29T01:55:49;100213.00;;;6.11;61.31
10115;BME280;5097;43.260;27.812;2023-04-29T01:58:38;100233.31;;;6.04;61.53
10115;BME280;5097;43.260;27.812;2023-04-29T02:01:40;100232.97;;;6.15;61.08
10115;BME280;5097;43.260;27.812;2023-04-29T02:04:24;100270.84;;;6.33;61.68
10115;BME280;5097;43.260;27.812;2023-04-29T02:07:10;100250.22;;;6.23;61.16
10115;BME280;5097;43.260;27.812;2023-04-29T02:09:54;100227.00;;;6.10;61.57
10115;BME280;5097;43.260;27.812;2023-04-29T02:12:38;100271.66;;;6.09;62.02
10115;BME280;5097;43.260;27.812;2023-04-29T02:15:44;100217.00;;;5.66;62.67
10115;BME280;5097;43.260;27.812;2023-04-29T02:18:29;100217.53;;;5.78;62.37
10115;BME280;5097;43.260;27.812;2023-04-29T02:21:13;100227.53;;;5.93;61.59
10115;BME280;5097;43.260;27.812;2023-04-29T02:23:57;100220.94;;;5.81;61.96
10115;BME280;5097;43.260;27.812;2023-04-29T02:26:41;100217.66;;;5.73;62.45
10115;BME280;5097;43.260;27.812;2023-04-29T02:29:25;100257.94;;;6.00;61.98
10115;BME280;5097;43.260;27.812;2023-04-29T02:32:13;100223.88;;;5.70;61.85
10115;BME280;5097;43.260;27.812;2023-04-29T02:34:57;100226.41;;;5.74;61.72
10115;BME280;5097;43.260;27.812;2023-04-29T02:37:45;100274.69;;;5.95;62.57
10115;BME280;5097;43.260;27.812;2023-04-29T02:40:29;100271.84;;;6.02;61.90
10115;BME280;5097;43.260;27.812;2023-04-29T02:43:13;100231.50;;;5.50;62.57
10115;BME280;5097;43.260;27.812;2023-04-29T02:45:59;100224.47;;;5.52;62.56
10115;BME280;5097;43.260;27.812;2023-04-29T02:48:45;100231.41;;;5.53;62.43
10115;BME280;5097;43.260;27.812;2023-04-29T02:51:30;100172.22;;;5.46;62.12
10115;BME280;5097;43.260;27.812;2023-04-29T02:54:15;100178.66;;;5.35;62.24
10115;BME280;5097;43.260;27.812;2023-04-29T02:56:59;100258.31;;;5.88;62.47
10115;BME280;5097;43.260;27.812;2023-04-29T02:59:43;100236.06;;;5.71;62.08
10115;BME280;5097;43.260;27.812;2023-04-29T03:02:27;100235.91;;;5.78;61.60
10115;BME280;5097;43.260;27.812;2023-04-29T03:05:15;100227.97;;;5.51;62.57
10115;BME280;5097;43.260;27.812;2023-04-29T03:07:59;100202.50;;;5.26;62.51
10115;BME280;5097;43.260;27.812;2023-04-29T03:10:43;100202.94;;;5.12;63.23
10115;BME280;5097;43.260;27.812;2023-04-29T03:13:28;100196.94;;;5.39;62.29
10115;BME280;5097;43.260;27.812;2023-04-29T03:16:12;100233.94;;;5.56;62.22
10115;BME280;5097;43.260;27.812;2023-04-29T03:18:59;100270.03;;;5.76;62.41
10115;BME280;5097;43.260;27.812;2023-04-29T03:21:44;100276.72;;;5.85;62.48
10115;BME280;5097;43.260;27.812;2023-04-29T03:24:28;100263.84;;;5.77;62.12
10115;BME280;5097;43.260;27.812;2023-04-29T03:27:13;100252.63;;;5.74;62.47
10115;BME280;5097;43.260;27.812;2023-04-29T03:29:57;100261.16;;;5.52;62.38
10115;BME280;5097;43.260;27.812;2023-04-29T03:32:41;100229.88;;;5.46;62.41
10115;BME280;5097;43.260;27.812;2023-04-29T03:35:26;100176.41;;;5.23;62.56
10115;BME280;5097;43.260;27.812;2023-04-29T03:38:34;100269.75;;;5.85;62.13
10115;BME280;5097;43.260;27.812;2023-04-29T03:41:19;100244.16;;;5.64;62.36
10115;BME280;5097;43.260;27.812;2023-04-29T03:44:05;100234.44;;;5.67;61.83
10115;BME280;5097;43.260;27.812;2023-04-29T03:46:49;100276.06;;;6.08;61.33
10115;BME280;5097;43.260;27.812;2023-04-29T03:49:33;100283.09;;;6.06;61.46
10115;BME280;5097;43.260;27.812;2023-04-29T03:52:18;100278.22;;;6.22;60.61
10115;BME280;5097;43.260;27.812;2023-04-29T03:55:07;100225.19;;;5.84;60.88
10115;BME280;5097;43.260;27.812;2023-04-29T03:57:51;100208.47;;;5.88;60.36
10115;BME280;5097;43.260;27.812;2023-04-29T04:00:36;100244.41;;;6.13;60.43
10115;BME280;5097;43.260;27.812;2023-04-29T04:03:26;100248.22;;;6.29;60.11
10115;BME280;5097;43.260;27.812;2023-04-29T04:06:12;100242.59;;;6.42;60.11
10115;BME280;5097;43.260;27.812;2023-04-29T04:08:57;100237.75;;;6.29;60.11
10115;BME280;5097;43.260;27.812;2023-04-29T04:11:45;100196.41;;;6.36;59.63
10115;BME280;5097;43.260;27.812;2023-04-29T04:14:30;100277.53;;;6.94;58.77
10115;BME280;5097;43.260;27.812;2023-04-29T04:17:14;100278.88;;;7.04;58.72
10115;BME280;5097;43.260;27.812;2023-04-29T04:19:58;100278.91;;;7.28;58.29
10115;BME280;5097;43.260;27.812;2023-04-29T04:22:44;100276.84;;;7.36;57.86
10115;BME280;5097;43.260;27.812;2023-04-29T04:25:36;100236.19;;;7.23;57.48
10115;BME280;5097;43.260;27.812;2023-04-29T04:28:40;100273.78;;;7.49;57.67
10115;BME280;5097;43.260;27.812;2023-04-29T04:31:30;100235.16;;;7.27;57.53
10115;BME280;5097;43.260;27.812;2023-04-29T04:34:14;100267.44;;;7.77;57.58
10115;BME280;5097;43.260;27.812;2023-04-29T04:37:01;100235.88;;;7.77;56.91
10115;BME280;5097;43.260;27.812;2023-04-29T04:39:46;100273.09;;;8.12;55.47
10115;BME280;5097;43.260;27.812;2023-04-29T04:42:31;100277.00;;;8.01;55.82
10115;BME280;5097;43.260;27.812;2023-04-29T04:45:17;100241.69;;;7.85;55.09
10115;BME280;5097;43.260;27.812;2023-04-29T04:48:05;100280.09;;;8.33;54.30
10115;BME280;5097;43.260;27.812;2023-04-29T04:50:52;100275.81;;;8.09;54.15
10115;BME280;5097;43.260;27.812;2023-04-29T04:53:36;100235.44;;;8.10;53.49
10115;BME280;5097;43.260;27.812;2023-04-29T04:56:25;100249.28;;;8.35;53.51
10115;BME280;5097;43.260;27.812;2023-04-29T04:59:09;100272.78;;;8.62;53.38
10115;BME280;5097;43.260;27.812;2023-04-29T05:01:56;100237.06;;;8.76;52.70
10115;BME280;5097;43.260;27.812;2023-04-29T05:04:40;100241.31;;;8.37;52.15
10115;BME280;5097;43.260;27.812;2023-04-29T05:07:25;100277.31;;;8.79;52.76
10115;BME280;5097;43.260;27.812;2023-04-29T05:10:15;100224.53;;;8.39;52.59
10115;BME280;5097;43.260;27.812;2023-04-29T05:13:03;100244.50;;;8.86;52.04
10115;BME280;5097;43.260;27.812;2023-04-29T05:15:49;100278.91;;;9.23;52.62
10115;BME280;5097;43.260;27.812;2023-04-29T05:18:39;100242.59;;;8.90;51.59
10115;BME280;5097;43.260;27.812;2023-04-29T05:21:26;100246.53;;;9.00;51.60
10115;BME280;5097;43.260;27.812;2023-04-29T05:24:10;100280.97;;;9.16;52.31
10115;BME280;5097;43.260;27.812;2023-04-29T05:26:54;100241.38;;;8.97;51.18
10115;BME280;5097;43.260;27.812;2023-04-29T05:29:38;100287.34;;;9.11;51.18
10115;BME280;5097;43.260;27.812;2023-04-29T05:32:23;100198.44;;;8.76;51.64
10115;BME280;5097;43.260;27.812;2023-04-29T05:35:09;100285.03;;;9.23;51.65
10115;BME280;5097;43.260;27.812;2023-04-29T05:37:53;100277.50;;;9.54;50.99
10115;BME280;5097;43.260;27.812;2023-04-29T05:41:00;100217.91;;;9.31;51.10
10115;BME280;5097;43.260;27.812;2023-04-29T05:44:03;100224.75;;;9.16;50.54
10115;BME280;5097;43.260;27.812;2023-04-29T05:46:47;100260.66;;;9.37;50.58
10115;BME280;5097;43.260;27.812;2023-04-29T05:49:33;100275.78;;;9.53;50.77
10115;BME280;5097;43.260;27.812;2023-04-29T05:52:19;100273.22;;;9.70;51.34
10115;BME280;5097;43.260;27.812;2023-04-29T05:55:04;100273.50;;;9.83;50.92
10115;BME280;5097;43.260;27.812;2023-04-29T05:57:49;100233.50;;;9.73;50.63
10115;BME280;5097;43.260;27.812;2023-04-29T06:00:33;100268.03;;;10.05;50.73
10115;BME280;5097;43.260;27.812;2023-04-29T06:03:24;100269.91;;;10.03;49.64
10115;BME280;5097;43.260;27.812;2023-04-29T06:06:29;100265.03;;;10.13;49.81
10115;BME280;5097;43.260;27.812;2023-04-29T06:09:24;100261.41;;;10.33;49.15
10115;BME280;5097;43.260;27.812;2023-04-29T06:12:14;100255.28;;;10.33;49.95
10115;BME280;5097;43.260;27.812;2023-04-29T06:15:00;100259.88;;;10.64;49.96
10115;BME280;5097;43.260;27.812;2023-04-29T06:17:47;100230.00;;;10.46;47.76
10115;BME280;5097;43.260;27.812;2023-04-29T06:20:31;100216.50;;;10.68;47.61
10115;BME280;5097;43.260;27.812;2023-04-29T06:23:18;100228.94;;;10.84;48.38
10115;BME280;5097;43.260;27.812;2023-04-29T06:26:07;100220.56;;;10.76;45.52
10115;BME280;5097;43.260;27.812;2023-04-29T06:28:51;100274.53;;;11.21;45.00
10115;BME280;5097;43.260;27.812;2023-04-29T06:31:35;100258.44;;;10.92;45.70
10115;BME280;5097;43.260;27.812;2023-04-29T06:34:20;100230.88;;;11.30;45.89
10115;BME280;5097;43.260;27.812;2023-04-29T06:37:32;100224.75;;;11.29;44.64
10115;BME280;5097;43.260;27.812;2023-04-29T06:40:26;100263.59;;;11.77;43.75
10115;BME280;5097;43.260;27.812;2023-04-29T06:43:47;100255.84;;;11.57;43.51
10115;BME280;5097;43.260;27.812;2023-04-29T06:46:31;100246.28;;;11.55;43.14
10115;BME280;5097;43.260;27.812;2023-04-29T06:49:23;100268.47;;;11.52;43.26
10115;BME280;5097;43.260;27.812;2023-04-29T06:52:07;100268.88;;;11.45;42.20
10115;BME280;5097;43.260;27.812;2023-04-29T06:54:51;100222.25;;;11.26;40.31
10115;BME280;5097;43.260;27.812;2023-04-29T06:57:35;100259.22;;;11.76;41.43
10115;BME280;5097;43.260;27.812;2023-04-29T07:00:22;100220.84;;;11.68;40.80
10115;BME280;5097;43.260;27.812;2023-04-29T07:03:09;100265.72;;;12.18;41.16
10115;BME280;5097;43.260;27.812;2023-04-29T07:05:54;100187.47;;;11.34;40.90
10115;BME280;5097;43.260;27.812;2023-04-29T07:08:38;100251.06;;;11.64;40.15
10115;BME280;5097;43.260;27.812;2023-04-29T07:11:22;100262.06;;;11.88;39.89
10115;BME280;5097;43.260;27.812;2023-04-29T07:14:08;100272.56;;;11.90;39.91
10115;BME280;5097;43.260;27.812;2023-04-29T07:16:54;100260.84;;;11.94;39.76
10115;BME280;5097;43.260;27.812;2023-04-29T07:19:38;100229.03;;;11.96;39.36
10115;BME280;5097;43.260;27.812;2023-04-29T07:22:22;100263.00;;;12.03;39.42
10115;BME280;5097;43.260;27.812;2023-04-29T07:25:07;100221.41;;;11.89;38.79
10115;BME280;5097;43.260;27.812;2023-04-29T07:27:53;100264.53;;;12.07;38.60
10115;BME280;5097;43.260;27.812;2023-04-29T07:30:39;100276.47;;;12.15;39.54
10115;BME280;5097;43.260;27.812;2023-04-29T07:33:25;100228.56;;;12.50;38.74
10115;BME280;5097;43.260;27.812;2023-04-29T07:36:10;100266.28;;;12.84;38.43
10115;BME280;5097;43.260;27.812;2023-04-29T07:38:55;100249.94;;;12.61;38.51
10115;BME280;5097;43.260;27.812;2023-04-29T07:41:39;100274.88;;;12.43;38.15
10115;BME280;5097;43.260;27.812;2023-04-29T07:44:23;100186.72;;;11.94;38.77
10115;BME280;5097;43.260;27.812;2023-04-29T07:47:07;100259.91;;;12.72;40.45
10115;BME280;5097;43.260;27.812;2023-04-29T07:49:53;100272.81;;;12.48;38.37
10115;BME280;5097;43.260;27.812;2023-04-29T07:52:37;100261.31;;;12.63;38.39
10115;BME280;5097;43.260;27.812;2023-04-29T07:55:21;100219.09;;;12.60;37.61
10115;BME280;5097;43.260;27.812;2023-04-29T07:58:05;100244.19;;;12.69;38.34
10115;BME280;5097;43.260;27.812;2023-04-29T08:00:49;100255.78;;;12.82;38.17
10115;BME280;5097;43.260;27.812;2023-04-29T08:03:34;100191.19;;;12.24;38.67
10115;BME280;5097;43.260;27.812;2023-04-29T08:06:23;100248.19;;;12.46;38.04
10115;BME280;5097;43.260;27.812;2023-04-29T08:09:07;100206.94;;;12.41;37.98
10115;BME280;5097;43.260;27.812;2023-04-29T08:11:55;100258.50;;;12.81;37.61
10115;BME280;5097;43.260;27.812;2023-04-29T08:14:39;100205.50;;;12.81;38.10
10115;BME280;5097;43.260;27.812;2023-04-29T08:17:23;100230.28;;;12.80;37.14
10115;BME280;5097;43.260;27.812;2023-04-29T08:20:08;100208.03;;;12.68;38.33
10115;BME280;5097;43.260;27.812;2023-04-29T08:22:54;100222.31;;;13.23;37.97
10115;BME280;5097;43.260;27.812;2023-04-29T08:25:41;100248.94;;;13.07;38.42
10115;BME280;5097;43.260;27.812;2023-04-29T08:28:26;100154.72;;;12.44;38.49
10115;BME280;5097;43.260;27.812;2023-04-29T08:31:15;100214.81;;;13.58;39.39
10115;BME280;5097;43.260;27.812;2023-04-29T08:34:00;100217.97;;;13.78;38.60
10115;BME280;5097;43.260;27.812;2023-04-29T08:36:44;100181.81;;;13.06;38.32
10115;BME280;5097;43.260;27.812;2023-04-29T08:39:29;100213.91;;;13.02;38.42
10115;BME280;5097;43.260;27.812;2023-04-29T08:42:14;100164.94;;;13.07;38.08
10115;BME280;5097;43.260;27.812;2023-04-29T08:44:58;100223.13;;;13.39;38.62
10115;BME280;5097;43.260;27.812;2023-04-29T08:47:47;100158.19;;;13.16;38.36
10115;BME280;5097;43.260;27.812;2023-04-29T08:50:36;100195.13;;;13.48;38.23
10115;BME280;5097;43.260;27.812;2023-04-29T08:53:21;100216.34;;;13.34;38.21
10115;BME280;5097;43.260;27.812;2023-04-29T08:56:13;100170.63;;;13.01;38.07
10115;BME280;5097;43.260;27.812;2023-04-29T08:59:01;100180.56;;;13.12;39.06
10115;BME280;5097;43.260;27.812;2023-04-29T09:01:47;100176.31;;;13.38;38.37
10115;BME280;5097;43.260;27.812;2023-04-29T09:04:40;100208.69;;;13.98;39.10
10115;BME280;5097;43.260;27.812;2023-04-29T09:07:30;100193.03;;;13.81;38.28
10115;BME280;5097;43.260;27.812;2023-04-29T09:10:16;100196.69;;;13.93;38.15
10115;BME280;5097;43.260;27.812;2023-04-29T09:13:02;100156.91;;;13.78;38.34
10115;BME280;5097;43.260;27.812;2023-04-29T09:15:46;100149.81;;;13.79;38.97
10115;BME280;5097;43.260;27.812;2023-04-29T09:18:44;100155.88;;;13.53;37.78
10115;BME280;5097;43.260;27.812;2023-04-29T09:21:29;100168.41;;;13.79;38.86
10115;BME280;5097;43.260;27.812;2023-04-29T09:24:24;100184.97;;;13.55;38.41
10115;BME280;5097;43.260;27.812;2023-04-29T09:27:08;100170.41;;;13.75;38.76
10115;BME280;5097;43.260;27.812;2023-04-29T09:30:00;100175.19;;;14.23;37.81
10115;BME280;5097;43.260;27.812;2023-04-29T09:33:02;100181.59;;;14.33;37.68
10115;BME280;5097;43.260;27.812;2023-04-29T09:35:47;100171.81;;;14.47;38.17
10115;BME280;5097;43.260;27.812;2023-04-29T09:38:31;100164.91;;;14.57;39.74
10115;BME280;5097;43.260;27.812;2023-04-29T09:41:16;100093.53;;;13.86;38.02
10115;BME280;5097;43.260;27.812;2023-04-29T09:44:05;100144.16;;;14.62;38.15
10115;BME280;5097;43.260;27.812;2023-04-29T09:46:55;100137.47;;;14.56;37.23
10115;BME280;5097;43.260;27.812;2023-04-29T09:49:41;100128.44;;;14.59;37.86
10115;BME280;5097;43.260;27.812;2023-04-29T09:52:38;100141.41;;;14.51;37.16
10115;BME280;5097;43.260;27.812;2023-04-29T09:55:23;100129.28;;;14.59;37.99
10115;BME280;5097;43.260;27.812;2023-04-29T09:58:26;100107.56;;;14.91;36.78
10115;BME280;5097;43.260;27.812;2023-04-29T10:01:11;100136.69;;;14.16;36.77
10115;BME280;5097;43.260;27.812;2023-04-29T10:04:02;100128.00;;;14.39;37.76
10115;BME280;5097;43.260;27.812;2023-04-29T10:06:48;100119.41;;;14.49;37.82
10115;BME280;5097;43.260;27.812;2023-04-29T10:09:33;100099.09;;;14.73;37.19
10115;BME280;5097;43.260;27.812;2023-04-29T10:12:20;100096.53;;;15.22;37.18
10115;BME280;5097;43.260;27.812;2023-04-29T10:15:12;100081.56;;;15.08;37.65
10115;BME280;5097;43.260;27.812;2023-04-29T10:18:07;100121.41;;;14.84;36.66
10115;BME280;5097;43.260;27.812;2023-04-29T10:20:56;100089.75;;;14.55;36.60
10115;BME280;5097;43.260;27.812;2023-04-29T10:23:44;100080.34;;;14.62;36.32
10115;BME280;5097;43.260;27.812;2023-04-29T10:26:29;100114.13;;;14.99;36.36
10115;BME280;5097;43.260;27.812;2023-04-29T10:29:14;100107.41;;;14.69;36.44
10115;BME280;5097;43.260;27.812;2023-04-29T10:32:00;100107.81;;;14.75;36.94
10115;BME280;5097;43.260;27.812;2023-04-29T10:34:45;100097.91;;;15.15;35.82
10115;BME280;5097;43.260;27.812;2023-04-29T10:37:30;100076.19;;;15.21;38.73
10115;BME280;5097;43.260;27.812;2023-04-29T10:40:17;100088.66;;;15.45;35.44
10115;BME280;5097;43.260;27.812;2023-04-29T10:43:03;100073.69;;;15.31;37.61
10115;BME280;5097;43.260;27.812;2023-04-29T10:45:47;100066.88;;;15.02;35.33
10115;BME280;5097;43.260;27.812;2023-04-29T10:48:31;100100.97;;;15.46;36.39
10115;BME280;5097;43.260;27.812;2023-04-29T10:51:28;100098.19;;;15.23;36.23
10115;BME280;5097;43.260;27.812;2023-04-29T10:54:15;100057.81;;;15.18;36.35
10115;BME280;5097;43.260;27.812;2023-04-29T10:57:02;100063.16;;;15.29;35.60
10115;BME280;5097;43.260;27.812;2023-04-29T10:59:46;100088.63;;;15.69;35.74
10115;BME280;5097;43.260;27.812;2023-04-29T11:02:30;100089.72;;;16.02;35.06
10115;BME280;5097;43.260;27.812;2023-04-29T11:05:14;100051.72;;;16.22;35.37
10115;BME280;5097;43.260;27.812;2023-04-29T11:08:09;100050.38;;;15.70;37.26
10115;BME280;5097;43.260;27.812;2023-04-29T11:10:59;100040.41;;;15.96;35.15
10115;BME280;5097;43.260;27.812;2023-04-29T11:13:45;100069.53;;;16.11;35.19
10115;BME280;5097;43.260;27.812;2023-04-29T11:16:29;100041.75;;;16.02;35.66
10115;BME280;5097;43.260;27.812;2023-04-29T11:19:14;100044.19;;;15.69;34.50
10115;BME280;5097;43.260;27.812;2023-04-29T11:22:13;100088.66;;;16.16;34.89
10115;BME280;5097;43.260;27.812;2023-04-29T11:25:01;100063.22;;;16.12;35.66
10115;BME280;5097;43.260;27.812;2023-04-29T11:27:50;100048.75;;;15.56;35.36
10115;BME280;5097;43.260;27.812;2023-04-29T11:30:37;100065.66;;;16.15;35.55
10115;BME280;5097;43.260;27.812;2023-04-29T11:33:21;100042.63;;;16.14;34.98
10115;BME280;5097;43.260;27.812;2023-04-29T11:36:05;100042.63;;;16.36;34.72
10115;BME280;5097;43.260;27.812;2023-04-29T11:38:50;100021.78;;;15.85;34.57
10115;BME280;5097;43.260;27.812;2023-04-29T11:41:34;100014.97;;;15.81;35.25
10115;BME280;5097;43.260;27.812;2023-04-29T11:44:21;100006.03;;;15.93;34.49
10115;BME280;5097;43.260;27.812;2023-04-29T11:47:06;99998.06;;;16.16;33.95
10115;BME280;5097;43.260;27.812;2023-04-29T11:49:50;100043.59;;;16.13;34.15
10115;BME280;5097;43.260;27.812;2023-04-29T11:52:35;100050.28;;;16.18;32.66
10115;BME280;5097;43.260;27.812;2023-04-29T11:55:20;100008.22;;;16.22;33.66
10115;BME280;5097;43.260;27.812;2023-04-29T11:58:04;100002.91;;;16.11;34.65
10115;BME280;5097;43.260;27.812;2023-04-29T12:00:49;100019.03;;;16.32;34.29
10115;BME280;5097;43.260;27.812;2023-04-29T12:03:33;99978.56;;;16.27;32.68
10115;BME280;5097;43.260;27.812;2023-04-29T12:06:18;99961.81;;;16.24;33.27
10115;BME280;5097;43.260;27.812;2023-04-29T12:09:02;99997.25;;;16.82;34.51
10115;BME280;5097;43.260;27.812;2023-04-29T12:11:47;99984.72;;;16.61;32.49
10115;BME280;5097;43.260;27.812;2023-04-29T12:14:32;99969.63;;;16.83;32.10
10115;BME280;5097;43.260;27.812;2023-04-29T12:17:18;100002.22;;;16.98;32.23
10115;BME280;5097;43.260;27.812;2023-04-29T12:20:03;100006.13;;;17.26;33.32
10115;BME280;5097;43.260;27.812;2023-04-29T12:22:47;100009.16;;;16.78;33.10
10115;BME280;5097;43.260;27.812;2023-04-29T12:25:31;99985.16;;;16.78;32.12
10115;BME280;5097;43.260;27.812;2023-04-29T12:28:16;99965.81;;;16.41;32.23
10115;BME280;5097;43.260;27.812;2023-04-29T12:31:00;99979.38;;;16.50;32.15
10115;BME280;5097;43.260;27.812;2023-04-29T12:33:46;99998.78;;;16.52;30.83
10115;BME280;5097;43.260;27.812;2023-04-29T12:36:30;100007.13;;;16.47;32.28
10115;BME280;5097;43.260;27.812;2023-04-29T12:39:15;100000.75;;;16.82;31.87
10115;BME280;5097;43.260;27.812;2023-04-29T12:41:59;100004.34;;;16.26;31.98
10115;BME280;5097;43.260;27.812;2023-04-29T12:44:44;99987.06;;;16.87;31.02
10115;BME280;5097;43.260;27.812;2023-04-29T12:47:31;99947.47;;;17.15;31.71
10115;BME280;5097;43.260;27.812;2023-04-29T12:50:17;99991.00;;;17.15;31.19
10115;BME280;5097;43.260;27.812;2023-04-29T12:53:02;99992.16;;;16.90;31.72
10115;BME280;5097;43.260;27.812;2023-04-29T12:55:47;99965.72;;;16.87;29.75
10115;BME280;5097;43.260;27.812;2023-04-29T12:58:31;99969.44;;;16.40;29.45
10115;BME280;5097;43.260;27.812;2023-04-29T13:01:16;99970.69;;;16.25;30.37
10115;BME280;5097;43.260;27.812;2023-04-29T13:04:00;99979.72;;;16.68;31.35
10115;BME280;5097;43.260;27.812;2023-04-29T13:06:48;99965.03;;;16.62;32.29
10115;BME280;5097;43.260;27.812;2023-04-29T13:09:35;99938.34;;;16.73;30.34
10115;BME280;5097;43.260;27.812;2023-04-29T13:12:23;99958.34;;;17.23;30.61
10115;BME280;5097;43.260;27.812;2023-04-29T13:15:08;99946.03;;;17.53;31.67
10115;BME280;5097;43.260;27.812;2023-04-29T13:17:53;99960.19;;;17.11;30.23
10115;BME280;5097;43.260;27.812;2023-04-29T13:20:37;100003.31;;;16.95;30.93
10115;BME280;5097;43.260;27.812;2023-04-29T13:23:25;99947.75;;;16.89;31.11
10115;BME280;5097;43.260;27.812;2023-04-29T13:26:09;99952.91;;;16.69;30.79
10115;BME280;5097;43.260;27.812;2023-04-29T13:28:54;99948.28;;;16.71;31.27
10115;BME280;5097;43.260;27.812;2023-04-29T13:31:38;99971.88;;;17.31;30.03
10115;BME280;5097;43.260;27.812;2023-04-29T13:34:22;99976.13;;;17.55;29.63
10115;BME280;5097;43.260;27.812;2023-04-29T13:37:06;99924.88;;;17.19;30.20
10115;BME280;5097;43.260;27.812;2023-04-29T13:39:51;99967.13;;;17.56;29.83
10115;BME280;5097;43.260;27.812;2023-04-29T13:42:39;99958.09;;;17.47;28.37
10115;BME280;5097;43.260;27.812;2023-04-29T13:45:31;99910.75;;;17.28;28.39
10115;BME280;5097;43.260;27.812;2023-04-29T13:48:20;99934.69;;;17.39;28.92
10115;BME280;5097;43.260;27.812;2023-04-29T13:51:25;99959.81;;;18.00;28.07
10115;BME280;5097;43.260;27.812;2023-04-29T13:54:12;99952.09;;;17.34;28.41
10115;BME280;5097;43.260;27.812;2023-04-29T13:57:00;99959.25;;;17.75;27.95
10115;BME280;5097;43.260;27.812;2023-04-29T14:00:06;99963.50;;;17.88;28.47
10115;BME280;5097;43.260;27.812;2023-04-29T14:03:11;99959.63;;;18.23;28.72
10115;BME280;5097;43.260;27.812;2023-04-29T14:05:55;99968.63;;;17.91;28.46
10115;BME280;5097;43.260;27.812;2023-04-29T14:08:39;99962.19;;;18.34;28.08
10115;BME280;5097;43.260;27.812;2023-04-29T14:11:23;99931.94;;;17.93;28.41
10115;BME280;5097;43.260;27.812;2023-04-29T14:14:09;99956.94;;;17.92;28.35
10115;BME280;5097;43.260;27.812;2023-04-29T14:16:53;99951.13;;;18.08;28.99
10115;BME280;5097;43.260;27.812;2023-04-29T14:19:37;99924.03;;;17.91;28.56
10115;BME280;5097;43.260;27.812;2023-04-29T14:22:21;99908.81;;;18.23;28.03
10115;BME280;5097;43.260;27.812;2023-04-29T14:25:06;99944.91;;;18.38;28.48
10115;BME280;5097;43.260;27.812;2023-04-29T14:27:51;99961.16;;;18.16;27.81
10115;BME280;5097;43.260;27.812;2023-04-29T14:30:36;99925.97;;;17.89;26.96
10115;BME280;5097;43.260;27.812;2023-04-29T14:33:20;99915.41;;;17.57;27.65
10115;BME280;5097;43.260;27.812;2023-04-29T14:36:05;99924.00;;;17.39;27.01
10115;BME280;5097;43.260;27.812;2023-04-29T14:38:49;99951.50;;;17.72;26.78